Terminal Aerodrome Forecast
Issued by NWS Charleston, WV

Current Version | Previous Version | Graphics & Text | Print | Product List | Glossary On
Versions: 1 2 3 4 5 6 7 8 9 10 11 12 13 14 15 16 17 18 19 20 21
000
FTUS41 KRLX 271543 AAA
TAFBKW
TAF AMD
KBKW 271543Z 2716/2812 VRB03KT 6SM -RA BKN040
     FM271700 26007KT P6SM BKN040
     FM272100 30004KT 3SM SHRA VCTS BKN040CB
     FM280000 00000KT P6SM VCSH BKN040
     FM280700 VRB03KT 4SM -SHRA OVC030=

USA.gov is the U.S. government's official web portal to all federal, state and local government web resources and services.